Time;durP1;ratioP1;P1;durP2;ratioP2;P2;SDS_P1;SDS_P2;PMS_P1;PMS_P2;Temp;Humidity;BMP_temperature;BMP_pressure;BME280_temperature;BME280_humidity;BME280_pressure;Samples;Min_cycle;Max_cycle;Signal;HPM_P1;HPM_P2
2023/07/13 00:02:16;;;;;;;3.58;2.10;;;17.70;99.90;;;;;;5045113;28;20036;-43
2023/07/13 00:04:42;;;;;;;5.95;1.52;;;17.60;99.90;;;;;;5044663;28;20029;-42
2023/07/13 00:07:08;;;;;;;3.42;1.48;;;17.60;99.90;;;;;;5044122;28;20475;-42
2023/07/13 00:09:34;;;;;;;2.83;1.30;;;17.60;99.90;;;;;;5044592;28;20031;-42
2023/07/13 00:12:00;;;;;;;3.50;1.30;;;17.60;99.90;;;;;;5045090;28;20025;-42
2023/07/13 00:14:28;;;;;;;5.28;1.88;;;17.60;99.90;;;;;;5044739;28;20591;-42
2023/07/13 00:17:14;;;;;;;3.58;1.50;;;17.70;99.90;;;;;;5044742;28;20029;-43
2023/07/13 00:19:40;;;;;;;3.00;1.25;;;17.70;99.90;;;;;;5044552;28;20029;-42
2023/07/13 00:22:06;;;;;;;2.90;1.23;;;17.70;99.90;;;;;;5043642;28;20443;-43
2023/07/13 00:24:31;;;;;;;3.53;1.23;;;17.70;99.90;;;;;;5044898;28;20039;-43
2023/07/13 00:26:57;;;;;;;4.05;1.50;;;17.70;99.90;;;;;;5044260;28;20082;-42
2023/07/13 00:29:23;;;;;;;2.65;1.30;;;17.70;99.90;;;;;;5044589;28;20484;-42
2023/07/13 00:31:48;;;;;;;3.72;1.67;;;17.60;99.90;;;;;;5044045;28;20033;-42
2023/07/13 00:34:14;;;;;;;3.50;1.40;;;17.60;99.90;;;;;;5043993;28;20025;-41
2023/07/13 00:36:42;;;;;;;2.90;1.23;;;17.50;99.90;;;;;;5044164;28;20017;-42
2023/07/13 00:39:08;;;;;;;2.67;1.30;;;17.50;99.90;;;;;;5044471;28;20108;-42
2023/07/13 00:41:36;;;;;;;3.28;1.40;;;17.50;99.90;;;;;;5046108;28;20104;-42
2023/07/13 00:44:02;;;;;;;2.78;1.23;;;17.40;99.90;;;;;;5048609;28;20028;-42
2023/07/13 00:46:37;;;;;;;4.57;1.30;;;17.40;99.90;;;;;;5047682;28;20055;-41
2023/07/13 00:49:05;;;;;;;3.67;1.52;;;17.40;99.90;;;;;;5047546;28;20385;-42
2023/07/13 00:51:54;;;;;;;2.28;1.10;;;17.40;99.90;;;;;;5048986;28;20044;-41
2023/07/13 00:54:31;;;;;;;1.70;1.00;;;17.30;99.90;;;;;;5048512;28;20036;-42
2023/07/13 00:57:00;;;;;;;2.28;1.08;;;17.30;99.90;;;;;;5047908;28;20804;-42
2023/07/13 00:59:26;;;;;;;2.70;1.05;;;17.30;99.90;;;;;;5048498;28;20116;-41
2023/07/13 01:01:54;;;;;;;3.13;1.48;;;17.30;99.90;;;;;;5048602;28;20025;-42
2023/07/13 01:04:25;;;;;;;2.25;1.10;;;17.30;99.90;;;;;;5047133;28;20025;-42
2023/07/13 01:06:50;;;;;;;1.63;1.00;;;17.20;99.90;;;;;;5047631;28;20271;-42
2023/07/13 01:09:16;;;;;;;3.15;1.48;;;17.20;99.90;;;;;;5046403;28;20074;-42
2023/07/13 01:11:45;;;;;;;3.30;1.38;;;17.20;99.90;;;;;;5048115;28;20556;-42
2023/07/13 01:14:10;;;;;;;2.58;1.02;;;17.20;99.90;;;;;;5047471;28;20763;-41
2023/07/13 01:16:38;;;;;;;2.63;1.30;;;17.10;99.90;;;;;;5047091;28;20029;-42
2023/07/13 01:19:23;;;;;;;1.67;1.05;;;17.10;99.90;;;;;;5047577;28;20068;-41
2023/07/13 01:21:53;;;;;;;2.90;1.05;;;17.10;99.90;;;;;;5047950;28;20033;-42
2023/07/13 01:24:18;;;;;;;3.22;1.33;;;17.10;99.90;;;;;;5048659;28;20142;-42
2023/07/13 01:26:44;;;;;;;2.40;1.20;;;17.10;99.90;;;;;;5048010;28;20047;-42
2023/07/13 01:29:10;;;;;;;2.05;1.30;;;17.10;99.90;;;;;;5046979;28;20033;-41
2023/07/13 01:31:35;;;;;;;3.28;1.20;;;17.00;99.90;;;;;;5046697;28;20035;-42
2023/07/13 01:34:01;;;;;;;4.40;1.55;;;17.00;99.90;;;;;;5047047;28;20638;-41
2023/07/13 01:36:27;;;;;;;2.97;1.27;;;17.10;99.90;;;;;;5047776;28;20037;-42
2023/07/13 01:38:52;;;;;;;2.42;1.25;;;17.00;99.90;;;;;;5046840;28;20019;-41
2023/07/13 01:41:18;;;;;;;2.60;1.40;;;17.00;99.90;;;;;;5047733;28;20029;-42
2023/07/13 01:43:43;;;;;;;2.33;1.20;;;17.00;99.90;;;;;;5047726;28;20017;-39
2023/07/13 01:46:12;;;;;;;2.38;1.30;;;17.00;99.90;;;;;;5046260;28;20025;-41
2023/07/13 01:48:37;;;;;;;1.48;1.00;;;16.90;99.90;;;;;;5047008;28;20033;-41
2023/07/13 01:51:03;;;;;;;1.67;1.15;;;16.90;99.90;;;;;;5046961;28;20028;-41
2023/07/13 01:53:29;;;;;;;2.97;1.38;;;16.80;99.90;;;;;;5046968;28;20027;-42
2023/07/13 01:55:57;;;;;;;2.33;1.10;;;16.80;99.90;;;;;;5046775;28;20473;-41
2023/07/13 01:58:23;;;;;;;3.50;1.67;;;16.70;99.90;;;;;;5046239;28;20039;-41
2023/07/13 02:00:49;;;;;;;2.67;1.30;;;16.70;99.90;;;;;;5043901;28;20017;-41
2023/07/13 02:03:17;;;;;;;3.15;1.38;;;16.70;99.90;;;;;;5046823;28;20381;-41
2023/07/13 02:05:44;;;;;;;3.83;1.58;;;16.60;99.90;;;;;;5045854;28;20027;-41
2023/07/13 02:08:09;;;;;;;3.28;1.30;;;16.60;99.90;;;;;;5046896;28;20057;-41
2023/07/13 02:10:36;;;;;;;3.40;1.65;;;16.70;99.90;;;;;;5046070;28;20083;-41
2023/07/13 02:13:08;;;;;;;4.07;1.42;;;16.60;99.90;;;;;;5046390;28;20034;-42
2023/07/13 02:15:33;;;;;;;4.73;1.37;;;16.60;99.90;;;;;;5047110;28;20021;-42
2023/07/13 02:17:59;;;;;;;6.53;1.45;;;16.60;99.90;;;;;;5046613;28;20473;-42
2023/07/13 02:20:26;;;;;;;4.00;1.42;;;16.50;99.90;;;;;;5046175;28;20025;-42
2023/07/13 02:22:52;;;;;;;3.20;1.60;;;16.50;99.90;;;;;;5046942;28;20039;-42
2023/07/13 02:25:18;;;;;;;3.65;1.80;;;16.50;99.90;;;;;;5046091;28;20025;-42
2023/07/13 02:27:43;;;;;;;3.45;1.63;;;16.50;99.90;;;;;;5045380;28;20037;-42
2023/07/13 02:30:11;;;;;;;3.28;1.38;;;16.50;99.90;;;;;;5046541;28;20068;-42
2023/07/13 02:32:36;;;;;;;8.43;2.22;;;16.40;99.90;;;;;;5046430;28;20020;-42
2023/07/13 02:35:03;;;;;;;3.72;1.60;;;16.40;99.90;;;;;;5045429;28;20694;-42
2023/07/13 02:37:28;;;;;;;5.18;1.77;;;16.40;99.90;;;;;;5046907;28;20032;-41
2023/07/13 02:39:54;;;;;;;5.03;1.90;;;16.40;99.90;;;;;;5046506;28;20025;-41
2023/07/13 02:42:20;;;;;;;5.88;1.70;;;16.40;99.90;;;;;;5045521;28;20039;-42
2023/07/13 02:44:46;;;;;;;3.20;1.65;;;16.40;99.90;;;;;;5046561;28;20045;-41
2023/07/13 02:47:12;;;;;;;2.35;1.35;;;16.40;99.90;;;;;;5045736;28;20029;-42
2023/07/13 02:49:38;;;;;;;2.03;1.30;;;16.30;99.90;;;;;;5045591;28;20035;-41
2023/07/13 02:52:04;;;;;;;2.58;1.50;;;16.30;99.90;;;;;;5046440;28;20032;-41
2023/07/13 02:54:30;;;;;;;2.80;1.50;;;16.20;99.90;;;;;;5046658;28;20017;-42
2023/07/13 02:56:58;;;;;;;4.03;1.65;;;16.20;99.90;;;;;;5045793;28;20822;-41
2023/07/13 02:59:24;;;;;;;4.13;2.08;;;16.10;99.90;;;;;;5046437;28;20027;-41
2023/07/13 03:01:49;;;;;;;2.40;1.25;;;16.10;99.90;;;;;;5044744;28;20068;-42
2023/07/13 03:04:19;;;;;;;3.60;1.30;;;16.10;99.90;;;;;;5044919;28;20032;-43
2023/07/13 03:06:47;;;;;;;3.00;1.65;;;16.10;99.90;;;;;;5045397;28;20037;-43
2023/07/13 03:09:13;;;;;;;4.45;1.52;;;16.00;99.90;;;;;;5045213;28;20040;-42
2023/07/13 03:11:38;;;;;;;2.67;1.67;;;16.00;99.90;;;;;;5045327;28;20021;-42
2023/07/13 03:14:04;;;;;;;5.57;2.15;;;16.00;99.90;;;;;;5045602;28;20103;-43
2023/07/13 03:16:30;;;;;;;4.38;1.95;;;16.00;99.90;;;;;;5045095;28;20021;-41
2023/07/13 03:18:56;;;;;;;3.25;1.88;;;16.00;99.90;;;;;;5045477;28;20057;-41
2023/07/13 03:21:21;;;;;;;4.55;2.05;;;16.00;99.90;;;;;;5045430;28;20100;-41
2023/07/13 03:23:47;;;;;;;4.07;1.80;;;15.90;99.90;;;;;;5044700;28;20029;-41
2023/07/13 03:26:17;;;;;;;3.75;2.03;;;15.90;99.90;;;;;;5045096;28;20029;-42
2023/07/13 03:28:43;;;;;;;4.95;2.20;;;15.80;99.90;;;;;;5045433;28;20686;-41
2023/07/13 03:31:15;;;;;;;5.85;2.17;;;15.80;99.90;;;;;;5045172;28;20017;-42
2023/07/13 03:33:41;;;;;;;7.22;2.17;;;15.80;99.90;;;;;;5045048;28;20533;-41
2023/07/13 03:36:09;;;;;;;4.63;1.98;;;15.80;99.90;;;;;;5045168;28;20465;-41
2023/07/13 03:38:35;;;;;;;3.42;1.83;;;15.80;99.90;;;;;;5044275;28;20029;-42
2023/07/13 03:41:01;;;;;;;2.88;1.60;;;15.80;99.90;;;;;;5045331;28;20033;-42
2023/07/13 03:43:27;;;;;;;3.83;1.70;;;15.80;99.90;;;;;;5045655;28;20068;-41
2023/07/13 03:45:53;;;;;;;3.10;1.60;;;15.80;99.90;;;;;;5044956;28;20025;-42
2023/07/13 03:48:21;;;;;;;6.90;2.08;;;15.70;99.90;;;;;;5044746;28;20808;-42
2023/07/13 03:50:49;;;;;;;5.22;2.05;;;15.70;99.90;;;;;;5044986;28;20028;-42
2023/07/13 03:53:15;;;;;;;6.00;2.00;;;15.80;99.90;;;;;;5045101;28;20083;-42
2023/07/13 03:55:40;;;;;;;3.55;1.60;;;15.70;99.90;;;;;;5045395;28;20029;-41
2023/07/13 03:58:28;;;;;;;4.80;2.10;;;15.80;99.90;;;;;;5044320;28;20086;-42
2023/07/13 04:00:55;;;;;;;5.57;1.85;;;15.80;99.90;;;;;;5044790;28;20021;-41
2023/07/13 04:03:21;;;;;;;3.88;2.00;;;15.80;99.90;;;;;;5044957;28;20047;-42
2023/07/13 04:05:49;;;;;;;5.55;2.00;;;15.80;99.90;;;;;;5043970;28;20056;-42
2023/07/13 04:08:15;;;;;;;5.15;2.67;;;15.80;99.90;;;;;;5044549;28;20088;-42
2023/07/13 04:10:42;;;;;;;7.40;2.08;;;15.80;99.90;;;;;;5044726;28;20048;-41
2023/07/13 04:13:08;;;;;;;4.78;2.10;;;15.80;99.90;;;;;;5043943;28;20032;-41
2023/07/13 04:15:33;;;;;;;4.97;2.10;;;15.80;99.90;;;;;;5047475;28;20025;-42
2023/07/13 04:17:59;;;;;;;3.78;2.10;;;15.80;99.90;;;;;;5048615;28;20029;-41
2023/07/13 04:20:26;;;;;;;3.90;2.05;;;15.80;99.90;;;;;;5048183;28;20873;-41
2023/07/13 04:22:53;;;;;;;8.02;2.55;;;15.80;99.90;;;;;;5049257;28;20040;-41
2023/07/13 04:25:20;;;;;;;4.50;2.15;;;15.80;99.90;;;;;;5048377;28;20025;-42
2023/07/13 04:27:46;;;;;;;3.03;1.80;;;15.80;99.90;;;;;;5048439;28;20118;-42
2023/07/13 04:30:11;;;;;;;5.93;1.92;;;15.80;99.90;;;;;;5048333;28;20029;-42
2023/07/13 04:32:37;;;;;;;4.43;1.95;;;15.90;99.90;;;;;;5028634;28;20128;-42
2023/07/13 04:35:06;;;;;;;3.97;1.90;;;15.90;99.90;;;;;;5042040;28;20039;-42
2023/07/13 04:37:32;;;;;;;3.42;1.70;;;16.00;99.90;;;;;;5048507;28;20047;-42
2023/07/13 04:39:57;;;;;;;4.47;1.90;;;16.00;99.90;;;;;;5048267;28;20021;-42
2023/07/13 04:42:23;;;;;;;6.90;2.38;;;16.10;99.90;;;;;;5047715;28;20112;-41
2023/07/13 04:44:50;;;;;;;5.40;2.10;;;16.10;99.90;;;;;;5048616;28;20045;-41
2023/07/13 04:47:18;;;;;;;5.30;2.50;;;16.20;99.90;;;;;;5047763;28;20036;-42
2023/07/13 04:49:45;;;;;;;5.00;1.92;;;16.30;99.90;;;;;;5047999;28;20484;-41
2023/07/13 04:52:11;;;;;;;6.20;2.35;;;16.30;99.90;;;;;;5048823;28;20493;-41
2023/07/13 04:54:37;;;;;;;5.65;2.00;;;16.40;99.90;;;;;;5047636;28;20025;-41
2023/07/13 04:57:06;;;;;;;5.90;2.28;;;16.40;99.90;;;;;;5048678;28;20041;-41
2023/07/13 04:59:32;;;;;;;5.13;2.00;;;16.50;99.90;;;;;;5047954;28;20053;-42
2023/07/13 05:01:58;;;;;;;7.18;2.42;;;16.50;99.90;;;;;;5046914;28;20040;-42
2023/07/13 05:04:24;;;;;;;4.75;2.30;;;16.60;99.90;;;;;;5048733;28;20021;-43
2023/07/13 05:07:02;;;;;;;5.13;2.55;;;16.60;99.90;;;;;;5047545;28;20120;-42
2023/07/13 05:09:27;;;;;;;5.80;2.75;;;16.70;99.90;;;;;;5047831;28;20028;-42
2023/07/13 05:11:53;;;;;;;6.68;2.65;;;16.70;99.90;;;;;;5048320;28;20021;-41
2023/07/13 05:14:18;;;;;;;7.07;3.03;;;16.70;99.90;;;;;;5047752;28;20060;-43
2023/07/13 05:16:44;;;;;;;5.45;2.75;;;16.70;99.90;;;;;;5047171;28;20020;-41
2023/07/13 05:19:11;;;;;;;6.55;3.05;;;16.80;99.90;;;;;;5048357;28;20115;-42
2023/07/13 05:21:37;;;;;;;5.70;3.10;;;16.80;99.90;;;;;;5047799;28;20017;-42
2023/07/13 05:24:02;;;;;;;7.60;3.35;;;16.80;99.90;;;;;;5047643;28;20020;-43
2023/07/13 05:26:28;;;;;;;5.93;2.60;;;16.80;99.90;;;;;;5047205;28;20078;-41
2023/07/13 05:28:54;;;;;;;6.45;3.10;;;16.80;99.90;;;;;;5047752;28;20028;-42
2023/07/13 05:31:23;;;;;;;5.53;3.20;;;16.90;99.90;;;;;;5046604;28;20017;-42
2023/07/13 05:33:49;;;;;;;5.22;2.95;;;16.90;99.90;;;;;;5045590;28;20029;-42
2023/07/13 05:36:14;;;;;;;7.10;3.13;;;16.90;99.90;;;;;;5046097;28;20025;-42
2023/07/13 05:38:40;;;;;;;7.97;3.42;;;17.00;99.90;;;;;;5046145;28;20087;-42
2023/07/13 05:41:12;;;;;;;6.30;3.10;;;17.00;99.90;;;;;;5046969;28;20079;-42
2023/07/13 05:43:37;;;;;;;11.82;4.18;;;17.10;99.90;;;;;;5045657;28;20036;-42
2023/07/13 05:46:03;;;;;;;10.38;3.72;;;17.10;99.90;;;;;;5046309;28;20116;-42
2023/07/13 05:48:29;;;;;;;8.90;4.03;;;17.20;99.90;;;;;;5047094;28;20454;-42
2023/07/13 05:50:54;;;;;;;7.45;3.72;;;17.10;99.90;;;;;;5045889;28;20708;-43
2023/07/13 05:53:20;;;;;;;8.55;3.75;;;17.20;99.90;;;;;;5045970;28;20040;-42
2023/07/13 05:55:47;;;;;;;6.40;3.30;;;17.30;99.90;;;;;;5046883;28;20128;-42
2023/07/13 05:58:17;;;;;;;11.93;4.53;;;17.40;99.90;;;;;;5044997;28;20747;-42
2023/07/13 06:00:42;;;;;;;11.52;4.68;;;17.50;99.90;;;;;;5046223;28;20017;-42
2023/07/13 06:03:08;;;;;;;11.23;5.10;;;17.60;99.90;;;;;;5045923;28;20039;-42
2023/07/13 06:05:36;;;;;;;10.85;4.85;;;17.60;99.90;;;;;;5045648;28;20025;-43
2023/07/13 06:08:02;;;;;;;8.23;4.53;;;17.60;99.90;;;;;;5046113;28;20150;-42
2023/07/13 06:10:28;;;;;;;11.30;5.32;;;17.70;99.90;;;;;;5046561;28;20755;-42
2023/07/13 06:12:54;;;;;;;10.20;5.35;;;17.80;99.90;;;;;;5045301;28;20028;-43
2023/07/13 06:15:19;;;;;;;10.98;6.38;;;17.80;99.90;;;;;;5046210;28;20043;-42
2023/07/13 06:17:45;;;;;;;12.65;6.38;;;17.90;99.90;;;;;;5046303;28;20385;-42
2023/07/13 06:20:11;;;;;;;13.32;6.53;;;18.00;99.90;;;;;;5046254;28;20037;-42
2023/07/13 06:22:36;;;;;;;10.98;5.43;;;18.00;99.90;;;;;;5046504;28;20025;-42
2023/07/13 06:25:02;;;;;;;12.40;6.10;;;18.00;99.90;;;;;;5046427;28;20712;-42
2023/07/13 06:27:28;;;;;;;12.43;6.18;;;18.10;99.90;;;;;;5045728;28;20037;-42
2023/07/13 06:29:54;;;;;;;12.55;6.25;;;18.20;99.90;;;;;;5045988;28;20029;-42
2023/07/13 06:32:20;;;;;;;12.30;6.43;;;18.20;99.90;;;;;;5046270;28;20033;-42
2023/07/13 06:34:46;;;;;;;13.35;7.05;;;18.30;99.90;;;;;;5044926;28;20082;-42
2023/07/13 06:37:11;;;;;;;16.98;6.63;;;18.30;99.90;;;;;;5046303;28;20028;-41
2023/07/13 06:39:37;;;;;;;14.23;7.57;;;18.40;99.90;;;;;;5044149;28;20021;-42
2023/07/13 06:42:03;;;;;;;14.75;7.68;;;18.50;99.90;;;;;;5046333;28;20059;-41
2023/07/13 06:44:31;;;;;;;12.02;6.45;;;18.60;99.90;;;;;;5046094;28;20029;-41
2023/07/13 06:46:57;;;;;;;12.07;6.90;;;18.70;99.90;;;;;;5046175;28;20818;-42
2023/07/13 06:49:23;;;;;;;10.25;6.90;;;18.80;99.90;;;;;;5046158;28;20035;-42
2023/07/13 06:51:51;;;;;;;13.95;7.05;;;18.80;99.90;;;;;;5046359;28;20031;-42
2023/07/13 06:54:17;;;;;;;14.95;8.10;;;18.90;99.90;;;;;;5045564;28;20044;-42
2023/07/13 06:56:42;;;;;;;12.77;7.68;;;19.00;99.90;;;;;;5046139;28;20021;-42
2023/07/13 06:59:08;;;;;;;15.23;7.30;;;19.20;99.90;;;;;;5045051;28;20505;-42
2023/07/13 07:01:34;;;;;;;14.85;7.95;;;19.30;99.90;;;;;;5045272;28;20025;-42
2023/07/13 07:03:59;;;;;;;15.68;9.07;;;19.40;99.90;;;;;;5045663;28;20028;-42
2023/07/13 07:06:25;;;;;;;12.60;6.80;;;19.40;99.90;;;;;;5046088;28;20028;-42
2023/07/13 07:08:52;;;;;;;13.90;7.47;;;19.40;99.90;;;;;;5044824;28;20132;-42
2023/07/13 07:11:22;;;;;;;11.70;7.18;;;19.50;99.90;;;;;;5045958;28;20025;-41
2023/07/13 07:13:48;;;;;;;15.70;7.28;;;19.60;99.90;;;;;;5045849;28;20045;-41
2023/07/13 07:16:14;;;;;;;11.82;7.05;;;19.60;99.90;;;;;;5044209;28;20067;-41
2023/07/13 07:18:43;;;;;;;10.35;7.10;;;19.60;99.90;;;;;;5045408;28;20032;-41
2023/07/13 07:21:11;;;;;;;10.60;6.35;;;19.60;99.90;;;;;;5045449;28;20033;-41
2023/07/13 07:23:37;;;;;;;11.55;6.35;;;19.60;99.90;;;;;;5045074;28;20017;-41
2023/07/13 07:26:03;;;;;;;9.95;6.00;;;19.70;99.90;;;;;;5045796;28;20047;-41
2023/07/13 07:28:28;;;;;;;8.18;5.65;;;19.60;99.90;;;;;;5045774;28;20110;-42
2023/07/13 07:30:58;;;;;;;7.30;5.25;;;19.70;99.90;;;;;;5044544;28;20082;-42
2023/07/13 07:33:24;;;;;;;9.05;5.88;;;19.70;99.90;;;;;;5045829;28;20674;-42
2023/07/13 07:35:51;;;;;;;11.25;5.78;;;19.80;99.90;;;;;;5045055;28;20818;-41
2023/07/13 07:38:17;;;;;;;10.38;6.60;;;19.90;99.90;;;;;;5044739;28;20056;-41
2023/07/13 07:40:43;;;;;;;13.48;7.38;;;19.90;99.90;;;;;;5044865;28;20100;-42
2023/07/13 07:43:10;;;;;;;8.93;5.90;;;19.90;99.90;;;;;;5044240;28;20041;-42
2023/07/13 07:45:37;;;;;;;10.57;7.00;;;20.00;99.90;;;;;;5045372;28;20021;-42
2023/07/13 07:48:03;;;;;;;9.18;6.38;;;20.10;99.90;;;;;;5045603;28;20037;-43
2023/07/13 07:50:32;;;;;;;11.05;6.22;;;20.30;99.90;;;;;;5044154;28;20092;-42
2023/07/13 07:52:58;;;;;;;12.55;7.22;;;20.40;99.90;;;;;;5044641;28;20136;-43
2023/07/13 07:55:28;;;;;;;14.27;7.38;;;20.50;99.90;;;;;;5045207;28;20593;-42
2023/07/13 07:57:55;;;;;;;10.57;6.78;;;20.50;99.90;;;;;;5044300;28;20021;-42
2023/07/13 08:00:21;;;;;;;10.93;6.30;;;20.50;99.90;;;;;;5044724;28;20029;-42
2023/07/13 08:02:50;;;;;;;11.15;6.90;;;20.50;99.90;;;;;;5045012;28;20037;-43
2023/07/13 08:05:16;;;;;;;7.57;5.80;;;20.60;99.90;;;;;;5044058;28;20039;-42
2023/07/13 08:07:41;;;;;;;12.88;7.15;;;20.80;99.90;;;;;;5044170;28;20049;-42
2023/07/13 08:10:08;;;;;;;10.68;7.40;;;20.90;99.90;;;;;;5044750;28;20099;-41
2023/07/13 08:12:38;;;;;;;10.43;6.72;;;20.90;99.90;;;;;;5043175;28;20060;-42
2023/07/13 08:15:04;;;;;;;10.05;7.00;;;20.90;99.90;;;;;;5024381;28;20862;-41
2023/07/13 08:17:31;;;;;;;11.02;7.82;;;21.00;99.90;;;;;;5038931;28;20057;-41
2023/07/13 08:19:56;;;;;;;14.13;7.47;;;21.00;99.90;;;;;;5044603;28;20639;-41
2023/07/13 08:22:22;;;;;;;9.55;7.35;;;21.00;99.90;;;;;;5044169;28;20051;-42
2023/07/13 08:24:55;;;;;;;10.23;6.72;;;21.00;99.90;;;;;;5044871;28;20025;-43
2023/07/13 08:27:21;;;;;;;10.07;6.88;;;20.90;99.90;;;;;;5044130;28;20485;-42
2023/07/13 08:29:48;;;;;;;11.82;7.63;;;21.00;99.90;;;;;;5043299;28;20626;-42
2023/07/13 08:32:14;;;;;;;10.35;7.32;;;21.10;99.90;;;;;;5041313;28;20028;-42
2023/07/13 08:34:40;;;;;;;9.27;7.40;;;21.20;99.90;;;;;;5043271;28;20052;-41
2023/07/13 08:37:06;;;;;;;11.00;6.93;;;21.30;99.90;;;;;;5042304;28;20563;-42
2023/07/13 08:39:33;;;;;;;13.05;8.18;;;21.40;99.90;;;;;;5042125;28;20039;-41
2023/07/13 08:42:12;;;;;;;11.30;8.23;;;21.50;99.90;;;;;;5043007;28;20033;-43
2023/07/13 08:45:06;;;;;;;10.13;7.60;;;21.60;99.90;;;;;;5044873;28;20079;-43
2023/07/13 08:47:38;;;;;;;14.05;8.50;;;21.60;99.90;;;;;;5043584;28;20115;-42
2023/07/13 08:50:06;;;;;;;;;;;21.40;99.90;;;;;;5044879;28;20065;-45
2023/07/13 08:52:46;;;;;;;12.00;6.65;;;21.20;99.90;;;;;;5044644;28;19916;-42
2023/07/13 08:55:29;;;;;;;8.65;6.40;;;21.00;99.90;;;;;;5034998;28;20056;-41
2023/07/13 08:58:06;;;;;;;10.77;7.22;;;20.80;99.90;;;;;;5044017;28;20579;-41
2023/07/13 09:00:48;;;;;;;9.85;6.82;;;20.80;99.90;;;;;;5044222;28;20025;-42
2023/07/13 09:03:22;;;;;;;10.27;6.47;;;20.90;99.90;;;;;;5048204;28;20060;-41
2023/07/13 09:05:54;;;;;;;9.23;5.78;;;20.90;99.90;;;;;;5047831;28;20025;-41
2023/07/13 09:08:31;;;;;;;11.52;5.93;;;21.00;99.90;;;;;;5047132;28;20087;-41
2023/07/13 09:11:32;;;;;;;7.40;4.72;;;21.10;99.90;;;;;;5048809;28;20385;-42
2023/07/13 09:14:35;;;;;;;11.50;5.93;;;21.20;99.90;;;;;;5045815;28;20132;-42
2023/07/13 09:17:05;;;;;;;7.13;5.00;;;21.30;99.90;;;;;;5047834;28;20025;-42
2023/07/13 09:19:39;;;;;;;7.72;4.38;;;21.50;99.90;;;;;;5047510;28;20028;-42
2023/07/13 09:22:13;;;;;;;8.57;4.63;;;21.70;99.90;;;;;;5046799;28;20058;-41
2023/07/13 09:24:59;;;;;;;6.03;4.00;;;21.80;99.90;;;;;;5047787;28;20040;-41
2023/07/13 09:27:33;;;;;;;4.75;3.40;;;21.80;99.90;;;;;;5048167;28;20040;-41
2023/07/13 09:30:34;;;;;;;9.13;4.43;;;21.90;99.90;;;;;;5046577;28;20048;-41
2023/07/13 09:33:00;;;;;;;8.55;4.57;;;21.80;99.90;;;;;;5027772;28;20033;-41
2023/07/13 09:35:30;;;;;;;7.65;4.60;;;21.50;99.90;;;;;;5044398;28;20033;-41
2023/07/13 09:38:16;;;;;;;6.25;3.63;;;21.30;99.90;;;;;;5028256;28;20363;-42
2023/07/13 09:41:26;;;;;;;5.65;2.80;;;21.10;99.90;;;;;;5045187;28;20060;-41
2023/07/13 09:44:50;;;;;;;4.88;2.38;;;20.90;99.90;;;;;;5047045;28;20062;-42
2023/07/13 09:47:18;;;;;;;4.85;2.88;;;20.80;99.90;;;;;;5025507;28;20408;-42
2023/07/13 09:49:44;;;;;;;4.43;2.67;;;20.70;99.90;;;;;;5046151;28;20013;-41
2023/07/13 09:52:13;;;;;;;3.92;2.50;;;20.60;99.90;;;;;;5047242;28;20078;-41
2023/07/13 09:54:39;;;;;;;4.35;2.60;;;20.60;99.90;;;;;;5047088;28;20104;-42
2023/07/13 09:57:16;;;;;;;3.58;2.55;;;20.60;99.90;;;;;;5046739;28;20108;-41
2023/07/13 09:59:46;;;;;;;4.78;3.10;;;20.60;99.90;;;;;;5047766;28;20070;-41
2023/07/13 10:02:34;;;;;;;5.22;2.75;;;20.60;99.90;;;;;;5047495;28;20809;-41
2023/07/13 10:05:03;;;;;;;6.45;3.72;;;20.50;99.90;;;;;;5046555;28;20029;-41
2023/07/13 10:07:29;;;;;;;7.68;3.03;;;20.50;99.90;;;;;;5046461;28;20049;-41
2023/07/13 10:09:57;;;;;;;3.60;2.60;;;20.40;99.90;;;;;;5046723;28;20493;-42
2023/07/13 10:12:24;;;;;;;4.80;2.97;;;20.40;99.90;;;;;;5045716;28;20063;-42
2023/07/13 10:14:56;;;;;;;6.63;2.80;;;20.40;99.90;;;;;;5046892;28;20055;-42
2023/07/13 10:17:32;;;;;;;6.28;3.17;;;20.50;99.90;;;;;;5046172;28;20063;-41
2023/07/13 10:20:10;;;;;;;6.13;3.00;;;20.60;99.90;;;;;;5045997;28;20052;-42
2023/07/13 10:22:57;;;;;;;6.43;3.28;;;20.70;99.90;;;;;;5046505;28;20028;-42
2023/07/13 10:25:33;;;;;;;8.02;3.55;;;20.80;99.90;;;;;;5045870;28;20037;-41
2023/07/13 10:28:13;;;;;;;7.47;3.40;;;20.90;99.90;;;;;;5046497;28;20121;-42
2023/07/13 10:30:42;;;;;;;7.68;3.20;;;21.10;99.90;;;;;;5046387;28;20408;-42
2023/07/13 10:33:13;;;;;;;6.65;3.05;;;21.20;99.90;;;;;;5045612;28;20106;-42
2023/07/13 10:35:43;;;;;;;8.82;2.80;;;21.40;99.90;;;;;;5046785;28;20033;-41
2023/07/13 10:38:15;;;;;;;5.35;2.63;;;21.50;99.90;;;;;;5046769;28;20036;-42
2023/07/13 10:40:54;;;;;;;3.85;2.47;;;21.60;99.90;;;;;;5045740;28;20025;-41
2023/07/13 10:43:28;;;;;;;5.60;2.80;;;21.60;99.90;;;;;;5042715;28;20476;-43
2023/07/13 10:45:55;;;;;;;4.38;2.20;;;21.50;99.90;;;;;;5046217;28;20036;-41
2023/07/13 10:48:23;;;;;;;8.18;2.75;;;21.40;99.90;;;;;;5046434;28;20055;-42
2023/07/13 10:50:52;;;;;;;5.18;3.60;;;21.30;99.90;;;;;;5046895;28;20021;-42
2023/07/13 10:54:07;;;;;;;4.10;2.60;;;21.20;99.90;;;;;;5045448;28;20423;-42
2023/07/13 10:56:36;;;;;;;5.50;2.65;;;21.10;99.90;;;;;;5043886;28;20043;-42
2023/07/13 10:59:25;;;;;;;4.53;2.40;;;21.10;99.90;;;;;;5046038;28;20048;-42
2023/07/13 11:02:09;;;;;;;4.10;2.38;;;21.30;99.90;;;;;;5045148;28;20025;-41
2023/07/13 11:04:45;;;;;;;4.28;2.47;;;21.50;99.90;;;;;;5036441;28;20029;-41
2023/07/13 11:07:27;;;;;;;4.05;2.33;;;21.80;99.90;;;;;;5044562;28;20877;-42
2023/07/13 11:09:55;;;;;;;4.50;2.30;;;22.00;99.90;;;;;;5037088;28;20037;-41
2023/07/13 11:12:25;;;;;;;5.75;2.70;;;22.20;99.90;;;;;;5045645;28;20056;-42
2023/07/13 11:14:57;;;;;;;4.20;2.25;;;22.40;99.90;;;;;;5034288;28;20036;-42
2023/07/13 11:17:37;;;;;;;4.20;2.10;;;22.50;99.90;;;;;;5045616;28;20511;-42
2023/07/13 11:20:10;;;;;;;3.92;1.95;;;22.50;99.90;;;;;;5035344;28;20029;-42
2023/07/13 11:22:45;;;;;;;4.82;2.25;;;22.40;99.90;;;;;;5045128;28;20025;-42
2023/07/13 11:25:33;;;;;;;3.60;1.88;;;22.30;99.90;;;;;;5034203;28;20408;-42
2023/07/13 11:28:11;;;;;;;3.53;1.95;;;22.20;99.90;;;;;;5044557;28;20469;-42
2023/07/13 11:30:40;;;;;;;3.22;1.60;;;22.20;99.90;;;;;;5046195;28;20029;-42
2023/07/13 11:33:12;;;;;;;4.60;1.83;;;22.20;99.90;;;;;;5045027;28;20020;-42
2023/07/13 11:35:44;;;;;;;3.88;1.83;;;22.30;99.90;;;;;;5044867;28;20044;-43
2023/07/13 11:38:18;;;;;;;3.05;1.70;;;22.30;99.90;;;;;;5031511;28;20028;-42
2023/07/13 11:40:48;;;;;;;3.05;1.70;;;22.30;99.90;;;;;;5035261;28;20025;-43
2023/07/13 11:43:15;;;;;;;3.03;1.60;;;22.30;99.90;;;;;;5044508;28;20062;-43
2023/07/13 11:45:42;;;;;;;3.08;1.50;;;22.30;99.90;;;;;;5045013;28;20040;-42
2023/07/13 11:48:22;;;;;;;2.53;1.70;;;22.30;99.90;;;;;;5045624;28;20037;-42
2023/07/13 11:51:07;;;;;;;3.42;1.50;;;22.50;99.90;;;;;;5044770;28;20103;-43
2023/07/13 11:53:40;;;;;;;3.03;1.90;;;22.70;99.90;;;;;;5044716;28;20049;-43
2023/07/13 11:56:07;;;;;;;3.50;1.77;;;22.90;99.90;;;;;;5044617;28;20029;-41
2023/07/13 11:58:36;;;;;;;3.80;2.10;;;23.00;99.90;;;;;;5044834;28;20025;-42
2023/07/13 12:01:06;;;;;;;5.18;2.20;;;23.10;99.90;;;;;;5044971;28;20094;-42
2023/07/13 12:03:35;;;;;;;4.32;2.33;;;23.10;99.90;;;;;;5044094;28;20017;-42
2023/07/13 12:06:05;;;;;;;3.55;2.13;;;22.90;99.90;;;;;;5044718;28;20036;-43
2023/07/13 12:08:38;;;;;;;3.75;1.92;;;22.80;99.90;;;;;;5044652;28;20065;-43
2023/07/13 12:11:09;;;;;;;2.15;1.40;;;22.70;99.90;;;;;;5044910;28;20060;-42
2023/07/13 12:13:37;;;;;;;3.70;2.00;;;22.60;99.90;;;;;;5045205;28;20043;-42
2023/07/13 12:16:34;;;;;;;3.95;2.10;;;22.60;99.90;;;;;;5044236;28;20022;-42
2023/07/13 12:19:02;;;;;;;4.93;2.33;;;22.60;99.90;;;;;;5041518;28;20068;-42
2023/07/13 12:21:34;;;;;;;4.82;2.50;;;22.60;99.90;;;;;;5043850;28;20036;-42
2023/07/13 12:24:03;;;;;;;2.88;2.17;;;22.60;99.90;;;;;;5044865;28;20032;-42
2023/07/13 12:26:30;;;;;;;3.42;1.83;;;22.60;99.90;;;;;;5043836;28;20500;-42
2023/07/13 12:28:58;;;;;;;5.75;2.00;;;22.70;99.90;;;;;;5045208;28;20566;-42
2023/07/13 12:31:33;;;;;;;5.20;2.00;;;22.80;99.90;;;;;;5044104;28;20110;-43
2023/07/13 12:34:08;;;;;;;3.60;2.00;;;23.10;99.90;;;;;;5044754;28;20048;-43
2023/07/13 12:36:37;;;;;;;3.40;2.20;;;23.20;99.90;;;;;;5047308;28;20366;-43
2023/07/13 12:39:19;;;;;;;4.10;2.03;;;23.40;99.90;;;;;;5048406;28;20033;-41
2023/07/13 12:41:47;;;;;;;3.85;2.10;;;23.40;99.90;;;;;;5048506;28;20029;-42
2023/07/13 12:44:19;;;;;;;2.97;1.70;;;23.40;99.20;;;;;;5048780;28;20043;-42
2023/07/13 12:47:02;;;;;;;4.63;2.38;;;23.30;99.80;;;;;;5047163;28;20021;-42
2023/07/13 12:49:36;;;;;;;3.42;2.20;;;23.20;98.90;;;;;;5028570;28;20036;-42
2023/07/13 12:52:04;;;;;;;3.20;1.80;;;23.00;99.10;;;;;;5045040;28;20025;-42
2023/07/13 12:54:31;;;;;;;2.47;1.58;;;22.80;99.60;;;;;;5048167;28;20369;-43
2023/07/13 12:56:59;;;;;;;5.13;2.30;;;22.70;99.80;;;;;;5048089;28;20017;-43
2023/07/13 12:59:29;;;;;;;3.30;2.20;;;22.70;99.10;;;;;;5048921;28;20025;-42